createdAt,value
2023-03-01T00:04:09.944Z,99534.03
2023-03-01T00:09:14.139Z,99545.31
2023-03-01T00:14:17.334Z,99536.81
2023-03-01T00:19:22.911Z,99536.09
2023-03-01T00:24:27.128Z,99530.97
2023-03-01T00:29:30.108Z,99529.19
2023-03-01T00:34:33.016Z,99532.72
2023-03-01T00:39:37.549Z,99525.81
2023-03-01T00:44:40.328Z,99517.34
2023-03-01T00:49:43.449Z,99524.34
2023-03-01T00:54:47.615Z,99514.13
2023-03-01T00:59:50.507Z,99512.56
2023-03-01T01:04:54.602Z,99515.34
2023-03-01T01:09:58.900Z,99512.03
2023-03-01T01:15:01.959Z,99502.47
2023-03-01T01:20:05.377Z,99506.72
2023-03-01T01:25:10.662Z,99501.50
2023-03-01T01:30:14.761Z,99500.66
2023-03-01T01:35:17.800Z,99498.06
2023-03-01T01:40:22.159Z,99496.28
2023-03-01T01:45:35.279Z,99486.72
2023-03-01T01:50:42.565Z,99495.44
2023-03-01T01:55:49.653Z,99497.94
2023-03-01T02:00:52.402Z,99477.97
2023-03-01T02:06:01.847Z,99472.88
2023-03-01T02:11:06.175Z,99462.28
2023-03-01T02:16:13.392Z,99459.78
2023-03-01T02:21:37.784Z,99461.59
2023-03-01T02:26:47.505Z,99465.41
2023-03-01T02:31:54.392Z,99466.53
2023-03-01T02:36:58.782Z,99466.75
2023-03-01T02:42:03.405Z,99454.72
2023-03-01T02:47:08.032Z,99444.13
2023-03-01T02:52:45.195Z,99445.03
2023-03-01T02:57:51.644Z,99426.94
2023-03-01T03:02:57.892Z,99447.03
2023-03-01T03:08:02.694Z,99432.44
2023-03-01T03:13:11.188Z,99430.59
2023-03-01T03:18:17.127Z,99422.06
2023-03-01T03:23:20.278Z,99418.72
2023-03-01T03:28:23.361Z,99407.50
2023-03-01T03:33:27.538Z,99395.41
2023-03-01T03:38:30.389Z,99390.09
2023-03-01T03:43:34.819Z,99383.94
2023-03-01T03:48:41.008Z,99370.94
2023-03-01T03:53:44.944Z,99367.81
2023-03-01T03:58:47.824Z,99366.41
2023-03-01T04:03:55.345Z,99370.16
2023-03-01T04:08:59.186Z,99375.53
2023-03-01T04:14:01.993Z,99375.59
2023-03-01T04:19:07.309Z,99387.91
2023-03-01T04:24:10.570Z,99381.81
2023-03-01T04:29:13.554Z,99381.88
2023-03-01T04:34:18.064Z,99383.53
2023-03-01T04:39:20.934Z,99379.97
2023-03-01T04:44:23.846Z,99376.28
2023-03-01T04:49:28.412Z,99377.09
2023-03-01T04:54:31.852Z,99381.44
2023-03-01T04:59:34.759Z,99383.97
2023-03-01T05:04:39.054Z,99376.28
2023-03-01T05:09:41.885Z,99377.22
2023-03-01T05:14:44.764Z,99373.81
2023-03-01T05:19:48.987Z,99371.19
2023-03-01T05:24:51.788Z,99362.59
2023-03-01T05:29:55.096Z,99364.38
2023-03-01T05:34:59.310Z,99361.72
2023-03-01T05:40:03.039Z,99362.66
2023-03-01T05:45:10.574Z,99366.91
2023-03-01T05:50:19.887Z,99363.44
2023-03-01T05:55:24.056Z,99366.97
2023-03-01T06:00:28.879Z,99359.34
2023-03-01T06:05:33.808Z,99352.63
2023-03-01T06:10:36.739Z,99350.88
2023-03-01T06:15:40.315Z,99334.34
2023-03-01T06:20:44.569Z,99345.69
2023-03-01T06:25:47.606Z,99342.00
2023-03-01T06:30:52.694Z,99340.03
2023-03-01T06:35:58.319Z,99346.81
2023-03-01T06:41:02.142Z,99351.66
2023-03-01T06:46:09.029Z,99350.63
2023-03-01T06:51:13.304Z,99353.75
2023-03-01T06:56:16.231Z,99347.38
2023-03-01T07:01:21.426Z,99350.56
2023-03-01T07:06:25.917Z,99351.19
2023-03-01T07:11:29.092Z,99345.56
2023-03-01T07:16:32.435Z,99343.63
2023-03-01T07:21:36.980Z,99336.13
2023-03-01T07:26:40.013Z,99327.75
2023-03-01T07:31:42.828Z,99337.03
2023-03-01T07:36:47.115Z,99328.09
2023-03-01T07:41:49.936Z,99334.22
2023-03-01T07:46:59.062Z,99327.63
2023-03-01T07:52:07.196Z,99334.75
2023-03-01T07:57:10.406Z,99330.06
2023-03-01T08:02:14.160Z,99328.75
2023-03-01T08:07:18.395Z,99325.63
2023-03-01T08:12:21.152Z,99322.03
2023-03-01T08:17:24.126Z,99312.72
2023-03-01T08:22:28.384Z,99320.81
2023-03-01T08:27:31.251Z,99320.59
2023-03-01T08:32:38.189Z,99324.69
2023-03-01T08:37:42.516Z,99324.16
2023-03-01T08:42:46.180Z,99324.56
2023-03-01T08:47:49.921Z,99323.06
2023-03-01T08:52:54.048Z,99315.72
2023-03-01T08:57:59.852Z,99312.84
2023-03-01T09:03:02.585Z,99299.97
2023-03-01T09:08:09.271Z,99302.47
2023-03-01T09:13:12.117Z,99299.75
2023-03-01T09:18:14.942Z,99291.06
2023-03-01T09:23:19.127Z,99301.75
2023-03-01T09:28:29.730Z,99288.84
2023-03-01T09:33:34.874Z,99300.69
2023-03-01T09:38:39.395Z,99286.78
2023-03-01T09:43:46.784Z,99290.03
2023-03-01T09:48:54.524Z,99282.94
2023-03-01T09:54:01.793Z,99282.63
2023-03-01T09:59:17.286Z,99278.53
2023-03-01T10:04:30.663Z,99267.84
2023-03-01T10:09:37.580Z,99266.75
2023-03-01T10:14:50.799Z,99263.28
2023-03-01T10:19:53.880Z,99255.81
2023-03-01T10:25:00.605Z,99235.75
2023-03-01T10:30:12.256Z,99218.75
2023-03-01T10:35:20.821Z,99214.31
2023-03-01T10:40:26.305Z,99229.44
2023-03-01T10:45:35.709Z,99229.44
2023-03-01T10:50:42.418Z,99222.00
2023-03-01T10:55:48.400Z,99226.63
2023-03-01T11:00:53.728Z,99209.31
2023-03-01T11:06:06.269Z,99207.47
2023-03-01T11:11:28.734Z,99205.78
2023-03-01T11:16:36.033Z,99199.63
2023-03-01T11:21:41.272Z,99196.56
2023-03-01T11:26:49.650Z,99180.53
2023-03-01T11:31:57.813Z,99178.19
2023-03-01T11:37:04.105Z,99159.63
2023-03-01T11:42:19.293Z,99152.91
2023-03-01T11:47:49.962Z,99152.31
2023-03-01T11:53:15.244Z,99148.19
2023-03-01T11:58:34.277Z,99145.25
2023-03-01T12:03:54.402Z,99139.34
2023-03-01T12:09:11.488Z,99129.78
2023-03-01T12:14:39.788Z,99127.00
2023-03-01T12:19:59.288Z,99111.44
2023-03-01T12:25:32.121Z,99108.75
2023-03-01T12:30:53.467Z,99107.38
2023-03-01T12:36:32.899Z,99093.91
2023-03-01T12:41:49.385Z,99082.00
2023-03-01T12:47:09.849Z,99073.72
2023-03-01T12:52:18.948Z,99065.03
2023-03-01T12:57:37.830Z,99063.19
2023-03-01T13:02:51.048Z,99054.09
2023-03-01T13:08:03.420Z,99051.53
2023-03-01T13:13:20.382Z,99027.41
2023-03-01T13:18:31.807Z,99025.25
2023-03-01T13:23:38.400Z,99024.03
2023-03-01T13:28:53.827Z,99021.72
2023-03-01T13:33:59.440Z,99041.06
2023-03-01T13:39:03.604Z,99032.31
2023-03-01T13:44:14.849Z,99031.25
2023-03-01T13:49:22.101Z,99031.25
2023-03-01T13:54:28.478Z,99025.84
2023-03-01T13:59:32.495Z,99020.94
2023-03-01T14:04:37.131Z,99003.00
2023-03-01T14:09:44.949Z,99006.47
2023-03-01T14:14:54.345Z,99002.88
2023-03-01T14:20:01.111Z,99003.72
2023-03-01T14:25:08.485Z,98995.44
2023-03-01T14:30:16.618Z,98990.44
2023-03-01T14:35:24.661Z,98996.44
2023-03-01T14:40:30.761Z,98989.28
2023-03-01T14:45:33.654Z,98989.63
2023-03-01T14:50:43.712Z,98985.38
2023-03-01T14:55:48.749Z,98980.16
2023-03-01T15:00:56.492Z,98970.69
2023-03-01T15:06:02.433Z,98974.75
2023-03-01T15:11:09.922Z,98964.72
2023-03-01T15:16:14.424Z,98952.19
2023-03-01T15:21:23.920Z,98948.31
2023-03-01T15:26:32.338Z,98953.63
2023-03-01T15:31:39.555Z,98940.25
2023-03-01T15:36:51.065Z,98935.91
2023-03-01T15:41:54.513Z,98933.63
2023-03-01T15:46:57.542Z,98931.56
2023-03-01T15:52:02.142Z,98933.72
2023-03-01T15:57:05.050Z,98927.69
2023-03-01T16:02:11.291Z,98932.09
2023-03-01T16:07:15.589Z,98934.56
2023-03-01T16:12:21.563Z,98940.84
2023-03-01T16:17:24.458Z,98945.31
2023-03-01T16:22:29.350Z,98939.47
2023-03-01T16:27:32.230Z,98938.53
2023-03-01T16:32:35.271Z,98940.44
2023-03-01T16:37:42.720Z,98944.38
2023-03-01T16:42:47.536Z,98949.84
2023-03-01T16:47:50.462Z,98949.75
2023-03-01T16:52:54.740Z,98955.22
2023-03-01T16:57:57.558Z,98959.22
2023-03-01T17:03:02.663Z,98965.66
2023-03-01T17:08:07.539Z,98965.16
2023-03-01T17:13:11.285Z,98968.75
2023-03-01T17:18:14.336Z,98967.00
2023-03-01T17:23:18.551Z,98973.72
2023-03-01T17:28:21.432Z,98976.19
2023-03-01T17:33:25.203Z,98976.69
2023-03-01T17:38:29.501Z,98983.56
2023-03-01T17:43:34.342Z,98983.81
2023-03-01T17:48:37.712Z,98987.03
2023-03-01T17:53:43.261Z,98983.69
2023-03-01T17:58:46.783Z,98982.47
2023-03-01T18:03:52.272Z,98978.31
2023-03-01T18:08:56.977Z,98984.13
2023-03-01T18:14:00.003Z,98983.84
2023-03-01T18:19:03.514Z,98991.00
2023-03-01T18:24:08.721Z,98990.59
2023-03-01T18:29:11.515Z,98979.50
2023-03-01T18:34:18.017Z,98981.59
2023-03-01T18:39:22.850Z,98973.06
2023-03-01T18:44:25.640Z,98975.69
2023-03-01T18:49:28.565Z,98976.00
2023-03-01T18:54:35.278Z,98977.25
2023-03-01T18:59:38.431Z,98975.47
2023-03-01T19:04:41.200Z,98959.94
2023-03-01T19:09:45.470Z,98954.00
2023-03-01T19:14:48.452Z,98941.03
2023-03-01T19:19:51.357Z,98935.31
2023-03-01T19:24:55.671Z,98935.38
2023-03-01T19:29:58.507Z,98926.22
2023-03-01T19:35:01.645Z,98926.38
2023-03-01T19:40:07.139Z,98937.06
2023-03-01T19:45:11.697Z,98926.75
2023-03-01T19:50:16.296Z,98933.97
2023-03-01T19:55:20.410Z,98941.00
2023-03-01T20:00:25.312Z,98938.66
2023-03-01T20:05:28.711Z,98938.56
2023-03-01T20:10:35.876Z,98929.28
2023-03-01T20:15:41.351Z,98940.13
2023-03-01T20:20:44.232Z,98947.75
2023-03-01T20:25:49.561Z,98959.41
2023-03-01T20:30:52.730Z,98969.16
2023-03-01T20:35:56.354Z,98961.06
2023-03-01T20:41:02.490Z,98964.03
2023-03-01T20:46:06.533Z,98966.25
2023-03-01T20:51:10.477Z,98964.75
2023-03-01T20:56:16.328Z,98960.47
2023-03-01T21:01:37.928Z,98947.59
2023-03-01T21:06:42.885Z,98949.72
2023-03-01T21:11:47.003Z,98946.47
2023-03-01T21:16:50.328Z,98955.50
2023-03-01T21:21:53.548Z,98958.31
2023-03-01T21:26:57.687Z,98951.50
2023-03-01T21:32:03.806Z,98948.09
2023-03-01T21:37:09.129Z,98948.16
2023-03-01T21:42:13.239Z,98946.75
2023-03-01T21:47:16.142Z,98945.28
2023-03-01T21:52:19.016Z,98940.25
2023-03-01T21:57:23.186Z,98935.81
2023-03-01T22:02:25.928Z,98942.94
2023-03-01T22:07:28.704Z,98937.09
2023-03-01T22:12:32.894Z,98943.34
2023-03-01T22:17:36.636Z,98941.56
2023-03-01T22:22:39.519Z,98943.66
2023-03-01T22:27:43.668Z,98940.41
2023-03-01T22:32:46.797Z,98934.41
2023-03-01T22:37:49.692Z,98934.69
2023-03-01T22:42:54.487Z,98936.78
2023-03-01T22:47:58.209Z,98936.97
2023-03-01T22:53:01.215Z,98938.94
2023-03-01T22:58:06.274Z,98940.91
2023-03-01T23:03:09.463Z,98936.44
2023-03-01T23:08:12.360Z,98927.72
2023-03-01T23:13:16.983Z,98933.22
2023-03-01T23:18:19.815Z,98927.31
2023-03-01T23:23:22.703Z,98929.28
2023-03-01T23:28:27.467Z,98933.81
2023-03-01T23:33:37.690Z,98922.97
2023-03-01T23:38:40.638Z,98919.88
2023-03-01T23:43:46.723Z,98925.53
2023-03-01T23:48:49.663Z,98911.88
2023-03-01T23:53:57.624Z,98906.91
2023-03-01T23:59:04.922Z,98908.03
